createdAt,value
2023-04-30T00:02:04.061Z,7.94
2023-04-30T00:04:49.422Z,7.85
2023-04-30T00:07:34.687Z,7.78
2023-04-30T00:10:19.885Z,7.74
2023-04-30T00:13:05.100Z,7.73
2023-04-30T00:15:51.476Z,7.71
2023-04-30T00:18:38.711Z,7.71
2023-04-30T00:21:23.904Z,7.66
2023-04-30T00:24:09.287Z,7.60
2023-04-30T00:26:54.538Z,7.55
2023-04-30T00:29:39.837Z,7.49
2023-04-30T00:32:25.161Z,7.44
2023-04-30T00:35:11.367Z,7.42
2023-04-30T00:37:56.399Z,7.42
2023-04-30T00:40:43.233Z,7.43
2023-04-30T00:43:28.353Z,7.49
2023-04-30T00:46:13.893Z,7.51
2023-04-30T00:49:00.212Z,7.54
2023-04-30T00:51:45.775Z,7.58
2023-04-30T00:54:31.042Z,7.60
2023-04-30T00:57:16.110Z,7.64
2023-04-30T01:00:02.033Z,7.55
2023-04-30T01:02:48.131Z,7.56
2023-04-30T01:05:33.565Z,7.59
2023-04-30T01:08:19.020Z,7.58
2023-04-30T01:11:57.452Z,7.57
2023-04-30T01:14:57.035Z,7.56
2023-04-30T01:17:53.832Z,7.56
2023-04-30T01:20:52.907Z,7.50
2023-04-30T01:23:57.281Z,7.43
2023-04-30T01:27:07.678Z,7.46
2023-04-30T01:29:56.175Z,7.51
2023-04-30T01:32:41.557Z,7.58
2023-04-30T01:36:00.712Z,7.60
2023-04-30T01:39:02.052Z,7.59
2023-04-30T01:41:50.028Z,7.59
2023-04-30T01:44:46.208Z,7.58
2023-04-30T01:47:41.000Z,7.57
2023-04-30T01:50:53.519Z,7.52
2023-04-30T01:53:42.717Z,7.55
2023-04-30T01:56:35.256Z,7.58
2023-04-30T01:59:20.931Z,7.60
2023-04-30T02:02:06.804Z,7.63
2023-04-30T02:04:52.064Z,7.66
2023-04-30T02:07:42.615Z,7.71
2023-04-30T02:10:29.456Z,7.71
2023-04-30T02:13:14.430Z,7.71
2023-04-30T02:15:59.889Z,7.71
2023-04-30T02:18:45.923Z,7.64
2023-04-30T02:21:31.814Z,7.59
2023-04-30T02:24:16.859Z,7.64
2023-04-30T02:27:02.504Z,7.53
2023-04-30T02:29:48.040Z,7.42
2023-04-30T02:32:33.538Z,7.44
2023-04-30T02:35:18.678Z,7.52
2023-04-30T02:38:03.993Z,7.60
2023-04-30T02:40:49.264Z,7.69
2023-04-30T02:43:34.563Z,7.71
2023-04-30T02:46:19.984Z,7.71
2023-04-30T02:49:05.186Z,7.73
2023-04-30T02:51:50.582Z,7.72
2023-04-30T02:54:36.555Z,7.75
2023-04-30T02:57:21.791Z,7.77
2023-04-30T03:00:07.701Z,7.81
2023-04-30T03:02:53.164Z,7.85
2023-04-30T03:05:38.241Z,7.86
2023-04-30T03:08:23.544Z,7.87
2023-04-30T03:11:08.819Z,7.88
2023-04-30T03:13:54.092Z,7.89
2023-04-30T03:16:39.606Z,7.78
2023-04-30T03:19:25.544Z,7.77
2023-04-30T03:22:11.460Z,7.76
2023-04-30T03:24:56.380Z,7.85
2023-04-30T03:27:41.690Z,7.90
2023-04-30T03:30:26.897Z,7.90
2023-04-30T03:33:12.308Z,7.84
2023-04-30T03:35:57.733Z,7.85
2023-04-30T03:38:43.022Z,7.87
2023-04-30T03:41:28.316Z,7.92
2023-04-30T03:44:15.983Z,7.96
2023-04-30T03:47:01.421Z,7.93
2023-04-30T03:49:48.989Z,7.97
2023-04-30T03:52:34.010Z,7.95
2023-04-30T03:55:19.454Z,7.92
2023-04-30T03:58:04.955Z,7.82
2023-04-30T04:00:50.583Z,7.84
2023-04-30T04:03:36.126Z,7.89
2023-04-30T04:06:21.593Z,7.92
2023-04-30T04:09:06.945Z,7.88
2023-04-30T04:11:52.354Z,7.86
2023-04-30T04:14:37.635Z,7.92
2023-04-30T04:17:23.061Z,7.94
2023-04-30T04:20:08.971Z,7.94
2023-04-30T04:22:54.536Z,7.94
2023-04-30T04:25:41.707Z,7.95
2023-04-30T04:28:26.688Z,7.92
2023-04-30T04:31:12.928Z,7.91
2023-04-30T04:34:00.396Z,8.00
2023-04-30T04:36:45.993Z,8.06
2023-04-30T04:39:30.898Z,8.00
2023-04-30T04:42:17.616Z,7.97
2023-04-30T04:45:03.929Z,7.98
2023-04-30T04:47:49.422Z,8.04
2023-04-30T04:50:34.733Z,8.11
2023-04-30T04:53:19.977Z,8.16
2023-04-30T04:56:06.078Z,8.10
2023-04-30T04:58:51.019Z,8.06
2023-04-30T05:01:36.507Z,8.10
2023-04-30T05:04:22.413Z,8.14
2023-04-30T05:07:08.135Z,8.18
2023-04-30T05:09:53.719Z,8.19
2023-04-30T05:12:39.229Z,8.17
2023-04-30T05:15:24.603Z,8.17
2023-04-30T05:18:09.886Z,8.19
2023-04-30T05:20:55.040Z,8.27
2023-04-30T05:23:40.541Z,8.36
2023-04-30T05:26:25.851Z,8.46
2023-04-30T05:29:12.141Z,8.55
2023-04-30T05:31:57.468Z,8.56
2023-04-30T05:34:42.745Z,8.53
2023-04-30T05:37:28.064Z,8.52
2023-04-30T05:40:13.890Z,8.58
2023-04-30T05:42:58.908Z,8.68
2023-04-30T05:45:44.488Z,8.70
2023-04-30T05:48:31.004Z,8.72
2023-04-30T05:51:16.128Z,8.65
2023-04-30T05:54:01.919Z,8.64
2023-04-30T05:56:46.991Z,8.67
2023-04-30T05:59:32.519Z,8.75
2023-04-30T06:02:17.612Z,8.81
2023-04-30T06:05:03.414Z,8.78
2023-04-30T06:07:49.033Z,8.77
2023-04-30T06:10:34.265Z,8.80
2023-04-30T06:13:19.298Z,8.85
2023-04-30T06:16:05.068Z,8.88
2023-04-30T06:18:51.667Z,8.87
2023-04-30T06:21:39.129Z,8.86
2023-04-30T06:24:27.516Z,8.92
2023-04-30T06:27:12.745Z,8.99
2023-04-30T06:29:57.732Z,9.04
2023-04-30T06:32:43.107Z,9.13
2023-04-30T06:35:28.139Z,9.17
2023-04-30T06:38:14.323Z,9.14
2023-04-30T06:40:59.649Z,9.16
2023-04-30T06:43:45.343Z,9.21
2023-04-30T06:46:30.612Z,9.26
2023-04-30T06:49:16.178Z,9.28
2023-04-30T06:52:01.567Z,9.36
2023-04-30T06:54:47.134Z,9.44
2023-04-30T06:57:32.510Z,9.46
2023-04-30T07:00:17.874Z,9.50
2023-04-30T07:03:04.548Z,9.54
2023-04-30T07:05:51.656Z,9.61
2023-04-30T07:08:36.892Z,9.68
2023-04-30T07:11:22.036Z,9.75
2023-04-30T07:14:07.288Z,9.79
2023-04-30T07:16:53.399Z,9.86
2023-04-30T07:19:38.588Z,9.93
2023-04-30T07:22:23.898Z,9.98
2023-04-30T07:25:09.540Z,10.05
2023-04-30T07:27:55.398Z,10.10
2023-04-30T07:30:40.915Z,10.15
2023-04-30T07:33:26.305Z,10.20
2023-04-30T07:36:11.723Z,10.27
2023-04-30T07:38:57.036Z,10.33
2023-04-30T07:41:42.275Z,10.39
2023-04-30T07:44:27.619Z,10.37
2023-04-30T07:47:12.902Z,10.43
2023-04-30T07:49:58.477Z,10.48
2023-04-30T07:52:43.551Z,10.51
2023-04-30T07:55:28.817Z,10.50
2023-04-30T07:58:13.999Z,10.51
2023-04-30T08:00:59.264Z,10.50
2023-04-30T08:03:44.822Z,10.47
2023-04-30T08:06:30.634Z,10.41
2023-04-30T08:09:15.794Z,10.39
2023-04-30T08:12:02.027Z,10.37
2023-04-30T08:14:47.120Z,10.36
2023-04-30T08:17:33.137Z,10.34
2023-04-30T08:20:19.071Z,10.25
2023-04-30T08:23:04.792Z,10.11
2023-04-30T08:25:49.919Z,10.06
2023-04-30T08:28:35.431Z,10.06
2023-04-30T08:31:20.712Z,10.06
2023-04-30T08:34:06.380Z,10.08
2023-04-30T08:36:51.547Z,10.14
2023-04-30T08:39:36.893Z,10.14
2023-04-30T08:42:26.071Z,10.10
2023-04-30T08:45:13.097Z,10.12
2023-04-30T08:48:00.287Z,10.00
2023-04-30T08:50:45.927Z,9.96
2023-04-30T08:53:34.723Z,10.02
2023-04-30T08:56:19.874Z,10.08
2023-04-30T08:59:05.344Z,10.07
2023-04-30T09:01:53.060Z,9.99
2023-04-30T09:04:39.056Z,9.93
2023-04-30T09:07:25.590Z,9.87
2023-04-30T09:10:21.784Z,9.78
2023-04-30T09:13:09.153Z,9.75
2023-04-30T09:15:54.747Z,9.70
2023-04-30T09:18:40.713Z,9.65
2023-04-30T09:21:33.066Z,9.72
2023-04-30T09:24:18.696Z,9.76
2023-04-30T09:27:16.475Z,9.74
2023-04-30T09:30:01.812Z,9.77
2023-04-30T09:32:57.020Z,9.82
2023-04-30T09:35:42.673Z,9.87
2023-04-30T09:38:32.599Z,9.88
2023-04-30T09:41:28.605Z,9.76
2023-04-30T09:44:28.484Z,9.67
2023-04-30T09:47:19.388Z,9.71
2023-04-30T09:50:06.045Z,9.67
2023-04-30T09:52:53.956Z,9.57
2023-04-30T09:55:42.442Z,9.47
2023-04-30T09:58:29.321Z,9.45
2023-04-30T10:01:14.547Z,9.43
2023-04-30T10:04:00.402Z,9.42
2023-04-30T10:06:46.794Z,9.42
2023-04-30T10:09:51.230Z,9.39
2023-04-30T10:12:45.006Z,9.38
2023-04-30T10:15:39.307Z,9.41
2023-04-30T10:18:31.395Z,9.35
2023-04-30T10:21:18.340Z,9.32
2023-04-30T10:24:04.038Z,9.38
2023-04-30T10:26:49.687Z,9.41
2023-04-30T10:29:35.050Z,9.49
2023-04-30T10:32:21.560Z,9.47
2023-04-30T10:35:16.968Z,9.51
2023-04-30T10:38:17.014Z,9.49
2023-04-30T10:41:02.977Z,9.44
2023-04-30T10:43:49.478Z,9.49
2023-04-30T10:46:37.705Z,9.49
2023-04-30T10:49:27.177Z,9.46
2023-04-30T10:52:12.570Z,9.48
2023-04-30T10:54:57.868Z,9.50
2023-04-30T10:57:46.609Z,9.54
2023-04-30T11:00:32.029Z,9.53
2023-04-30T11:03:17.200Z,9.57
2023-04-30T11:06:11.140Z,9.58
2023-04-30T11:09:04.092Z,9.64
2023-04-30T11:12:03.072Z,9.63
2023-04-30T11:14:50.418Z,9.70
2023-04-30T11:17:35.517Z,9.76
2023-04-30T11:20:23.691Z,9.81
2023-04-30T11:23:19.735Z,9.82
2023-04-30T11:26:13.585Z,9.84
2023-04-30T11:28:59.127Z,9.82
2023-04-30T11:31:45.504Z,9.85
2023-04-30T11:34:31.325Z,9.91
2023-04-30T11:37:21.072Z,9.88
2023-04-30T11:40:11.933Z,9.92
2023-04-30T11:42:57.385Z,9.92
2023-04-30T11:45:42.672Z,9.93
2023-04-30T11:48:42.300Z,9.97
2023-04-30T11:51:27.497Z,9.96
2023-04-30T11:54:14.521Z,9.95
2023-04-30T11:57:04.221Z,10.01
2023-04-30T11:59:49.730Z,10.05
2023-04-30T12:02:34.975Z,10.04
2023-04-30T12:05:22.573Z,10.08
2023-04-30T12:08:09.367Z,10.12
2023-04-30T12:10:54.676Z,10.12
2023-04-30T12:13:39.870Z,10.11
2023-04-30T12:16:25.865Z,10.17
2023-04-30T12:19:16.010Z,10.26
2023-04-30T12:22:01.273Z,10.33
2023-04-30T12:24:46.661Z,10.41
2023-04-30T12:27:33.800Z,10.49
2023-04-30T12:30:26.759Z,10.57
2023-04-30T12:33:12.518Z,10.63
2023-04-30T12:35:59.540Z,10.68
2023-04-30T12:38:44.532Z,10.73
2023-04-30T12:41:30.253Z,10.80
2023-04-30T12:44:18.268Z,10.94
2023-04-30T12:47:08.146Z,11.04
2023-04-30T12:49:53.720Z,11.13
2023-04-30T12:52:44.045Z,11.21
2023-04-30T12:55:31.250Z,11.25
2023-04-30T12:58:16.764Z,11.28
2023-04-30T13:01:01.920Z,11.30
2023-04-30T13:03:47.564Z,11.30
2023-04-30T13:06:33.370Z,11.39
2023-04-30T13:09:18.840Z,11.49
2023-04-30T13:12:04.652Z,11.54
2023-04-30T13:14:50.093Z,11.56
2023-04-30T13:17:35.412Z,11.62
2023-04-30T13:20:20.685Z,11.64
2023-04-30T13:23:06.695Z,11.65
2023-04-30T13:25:52.134Z,11.59
2023-04-30T13:28:37.350Z,11.61
2023-04-30T13:31:22.693Z,11.65
2023-04-30T13:34:09.753Z,11.72
2023-04-30T13:36:55.197Z,11.77
2023-04-30T13:39:40.788Z,11.73
2023-04-30T13:42:27.044Z,11.72
2023-04-30T13:45:12.463Z,11.70
2023-04-30T13:47:58.223Z,11.69
2023-04-30T13:50:43.572Z,11.71
2023-04-30T13:53:28.793Z,11.77
2023-04-30T13:56:15.487Z,11.83
2023-04-30T13:59:00.510Z,11.86
2023-04-30T14:01:45.620Z,11.89
2023-04-30T14:04:31.634Z,11.95
2023-04-30T14:07:16.584Z,11.98
2023-04-30T14:10:01.807Z,12.07
2023-04-30T14:12:47.257Z,12.15
2023-04-30T14:15:32.705Z,12.31
2023-04-30T14:18:18.586Z,12.49
2023-04-30T14:21:03.692Z,12.63
2023-04-30T14:23:49.260Z,12.73
2023-04-30T14:26:34.599Z,12.65
2023-04-30T14:29:21.578Z,12.57
2023-04-30T14:32:07.733Z,12.62
2023-04-30T14:34:53.391Z,12.73
2023-04-30T14:37:38.603Z,12.85
2023-04-30T14:40:23.762Z,12.93
2023-04-30T14:43:09.126Z,12.92
2023-04-30T14:45:54.505Z,12.93
2023-04-30T14:48:39.981Z,12.99
2023-04-30T14:51:25.550Z,13.14
2023-04-30T14:54:10.924Z,13.23
2023-04-30T14:56:55.992Z,13.30
2023-04-30T14:59:41.953Z,13.25
2023-04-30T15:02:27.447Z,13.22
2023-04-30T15:05:12.989Z,13.36
2023-04-30T15:07:57.987Z,13.52
2023-04-30T15:10:43.383Z,13.58
2023-04-30T15:13:28.585Z,13.48
2023-04-30T15:16:14.101Z,13.41
2023-04-30T15:18:59.731Z,13.46
2023-04-30T15:21:46.883Z,13.52
2023-04-30T15:24:33.226Z,13.57
2023-04-30T15:27:18.586Z,13.63
2023-04-30T15:30:04.213Z,13.62
2023-04-30T15:32:50.487Z,13.65
2023-04-30T15:35:36.088Z,13.71
2023-04-30T15:38:21.918Z,13.79
2023-04-30T15:41:06.883Z,13.87
2023-04-30T15:43:55.016Z,13.88
2023-04-30T15:46:40.557Z,13.84
2023-04-30T15:49:25.962Z,13.82
2023-04-30T15:52:11.172Z,13.77
2023-04-30T15:54:56.673Z,13.70
2023-04-30T15:57:41.980Z,13.71
2023-04-30T16:00:28.748Z,13.59
2023-04-30T16:03:13.846Z,13.57
2023-04-30T16:06:01.065Z,13.52
2023-04-30T16:08:46.902Z,13.49
2023-04-30T16:11:33.046Z,13.52
2023-04-30T16:14:18.067Z,13.50
2023-04-30T16:17:03.375Z,13.51
2023-04-30T16:19:48.588Z,13.46
2023-04-30T16:22:34.466Z,13.43
2023-04-30T16:25:20.733Z,13.45
2023-04-30T16:28:05.986Z,13.44
2023-04-30T16:30:51.034Z,13.37
2023-04-30T16:33:35.966Z,13.37
2023-04-30T16:36:21.410Z,13.42
2023-04-30T16:39:06.673Z,13.49
2023-04-30T16:41:51.920Z,13.44
2023-04-30T16:44:37.319Z,13.44
2023-04-30T16:47:22.593Z,13.45
2023-04-30T16:50:09.067Z,13.45
2023-04-30T16:52:54.281Z,13.40
2023-04-30T16:55:39.658Z,13.44
2023-04-30T16:58:25.128Z,13.52
2023-04-30T17:01:10.564Z,13.51
2023-04-30T17:03:56.255Z,13.49
2023-04-30T17:06:41.654Z,13.44
2023-04-30T17:09:26.917Z,13.35
2023-04-30T17:12:12.179Z,13.34
2023-04-30T17:14:57.709Z,13.39
2023-04-30T17:17:44.291Z,13.41
2023-04-30T17:20:29.543Z,13.30
2023-04-30T17:23:14.973Z,13.22
2023-04-30T17:26:01.206Z,13.18
2023-04-30T17:28:46.712Z,13.17
2023-04-30T17:31:31.855Z,13.18
2023-04-30T17:34:17.491Z,13.15
2023-04-30T17:37:02.552Z,13.07
2023-04-30T17:39:47.747Z,12.94
2023-04-30T17:42:34.067Z,12.78
2023-04-30T17:45:19.430Z,12.62
2023-04-30T17:48:04.931Z,12.44
2023-04-30T17:50:50.192Z,12.26
2023-04-30T17:53:35.540Z,11.88
2023-04-30T17:56:21.015Z,11.71
2023-04-30T17:59:07.616Z,11.62
2023-04-30T18:01:53.979Z,11.50
2023-04-30T18:04:39.384Z,11.40
2023-04-30T18:07:24.668Z,11.30
2023-04-30T18:10:09.945Z,11.16
2023-04-30T18:12:57.592Z,11.04
2023-04-30T18:15:42.769Z,10.91
2023-04-30T18:18:28.983Z,10.76
2023-04-30T18:21:14.710Z,10.66
2023-04-30T18:24:00.196Z,10.51
2023-04-30T18:26:45.959Z,10.41
2023-04-30T18:29:31.558Z,10.32
2023-04-30T18:32:17.526Z,10.21
2023-04-30T18:35:04.554Z,10.08
2023-04-30T18:37:49.868Z,9.93
2023-04-30T18:40:35.055Z,9.75
2023-04-30T18:43:20.560Z,9.65
2023-04-30T18:46:06.514Z,9.54
2023-04-30T18:48:52.370Z,9.44
2023-04-30T18:51:37.886Z,9.33
2023-04-30T18:54:24.056Z,9.25
2023-04-30T18:57:12.453Z,9.18
2023-04-30T18:59:58.124Z,9.09
2023-04-30T19:02:44.245Z,9.02
2023-04-30T19:05:29.728Z,8.93
2023-04-30T19:08:15.278Z,8.85
2023-04-30T19:11:00.360Z,8.77
2023-04-30T19:13:45.802Z,8.68
2023-04-30T19:16:31.558Z,8.56
2023-04-30T19:19:16.868Z,8.49
2023-04-30T19:22:02.365Z,8.43
2023-04-30T19:24:47.339Z,8.35
2023-04-30T19:27:32.825Z,8.26
2023-04-30T19:30:17.891Z,8.18
2023-04-30T19:33:05.409Z,8.07
2023-04-30T19:35:55.797Z,7.95
2023-04-30T19:38:41.398Z,7.91
2023-04-30T19:41:27.736Z,7.86
2023-04-30T19:44:13.585Z,7.76
2023-04-30T19:46:58.873Z,7.66
2023-04-30T19:49:44.656Z,7.61
2023-04-30T19:52:30.052Z,7.48
2023-04-30T19:55:15.625Z,7.34
2023-04-30T19:58:00.914Z,7.20
2023-04-30T20:00:46.546Z,7.14
2023-04-30T20:03:32.129Z,7.03
2023-04-30T20:06:17.635Z,6.98
2023-04-30T20:09:03.011Z,6.92
2023-04-30T20:11:49.499Z,6.84
2023-04-30T20:14:35.028Z,6.79
2023-04-30T20:17:20.756Z,6.70
2023-04-30T20:20:06.865Z,6.60
2023-04-30T20:22:54.076Z,6.51
2023-04-30T20:25:39.438Z,6.44
2023-04-30T20:28:25.027Z,6.40
2023-04-30T20:31:10.774Z,6.34
2023-04-30T20:33:56.369Z,6.33
2023-04-30T20:36:41.405Z,6.21
2023-04-30T20:39:26.847Z,6.13
2023-04-30T20:42:12.283Z,6.09
2023-04-30T20:44:57.417Z,6.01
2023-04-30T20:48:01.788Z,5.98
2023-04-30T20:50:47.667Z,5.94
2023-04-30T20:53:33.124Z,5.93
2023-04-30T20:56:18.433Z,5.82
2023-04-30T20:59:04.949Z,5.73
2023-04-30T21:01:49.946Z,5.66
2023-04-30T21:04:35.459Z,5.59
2023-04-30T21:07:20.842Z,5.51
2023-04-30T21:10:08.354Z,5.46
2023-04-30T21:12:54.176Z,5.43
2023-04-30T21:15:40.013Z,5.38
2023-04-30T21:18:28.155Z,5.38
2023-04-30T21:21:13.237Z,5.32
2023-04-30T21:24:01.074Z,5.23
2023-04-30T21:26:46.675Z,5.21
2023-04-30T21:29:32.232Z,5.21
2023-04-30T21:32:17.718Z,5.15
2023-04-30T21:35:05.961Z,5.06
2023-04-30T21:37:50.797Z,5.00
2023-04-30T21:40:36.206Z,4.92
2023-04-30T21:43:21.596Z,4.86
2023-04-30T21:46:07.652Z,4.79
2023-04-30T21:48:53.260Z,4.73
2023-04-30T21:51:39.387Z,4.74
2023-04-30T21:54:24.826Z,4.68
2023-04-30T21:57:10.467Z,4.59
2023-04-30T21:59:55.898Z,4.55
2023-04-30T22:02:41.795Z,4.51
2023-04-30T22:05:27.427Z,4.52
2023-04-30T22:08:12.683Z,4.43
2023-04-30T22:10:59.407Z,4.41
2023-04-30T22:13:44.784Z,4.42
2023-04-30T22:16:30.148Z,4.39
2023-04-30T22:19:15.507Z,4.33
2023-04-30T22:22:01.284Z,4.33
2023-04-30T22:24:46.924Z,4.29
2023-04-30T22:27:32.116Z,4.30
2023-04-30T22:30:18.688Z,4.24
2023-04-30T22:33:03.889Z,4.20
2023-04-30T22:35:49.501Z,4.13
2023-04-30T22:38:35.490Z,4.04
2023-04-30T22:41:22.382Z,3.98
2023-04-30T22:44:08.356Z,3.98
2023-04-30T22:46:56.693Z,3.96
2023-04-30T22:49:42.647Z,3.91
2023-04-30T22:52:29.514Z,3.92
2023-04-30T22:55:15.161Z,3.84
2023-04-30T22:58:01.686Z,3.82
2023-04-30T23:00:46.943Z,3.78
2023-04-30T23:03:32.203Z,3.77
2023-04-30T23:06:17.583Z,3.75
2023-04-30T23:09:03.384Z,3.68
2023-04-30T23:11:48.635Z,3.63
2023-04-30T23:14:34.053Z,3.59
2023-04-30T23:17:19.416Z,3.56
2023-04-30T23:20:05.158Z,3.50
2023-04-30T23:22:50.564Z,3.50
2023-04-30T23:25:35.647Z,3.49
2023-04-30T23:28:21.422Z,3.43
2023-04-30T23:31:06.466Z,3.42
2023-04-30T23:33:51.793Z,3.38
2023-04-30T23:36:37.060Z,3.37
2023-04-30T23:39:24.397Z,3.31
2023-04-30T23:42:10.088Z,3.28
2023-04-30T23:44:55.040Z,3.27
2023-04-30T23:47:40.306Z,3.26
2023-04-30T23:50:26.087Z,3.22
2023-04-30T23:53:11.200Z,3.15
2023-04-30T23:55:58.140Z,3.11
2023-04-30T23:58:44.087Z,3.04
